sensor_id;sensor_type;location;lat;lon;timestamp;temperature;humidity
3846;DHT22;1938;50.812;7.738;2023-08-06T00:02:15;14.10;67.90
3846;DHT22;1938;50.812;7.738;2023-08-06T00:04:40;14.10;91.60
3846;DHT22;1938;50.812;7.738;2023-08-06T00:07:06;14.10;64.80
3846;DHT22;1938;50.812;7.738;2023-08-06T00:09:31;14.10;55.30
3846;DHT22;1938;50.812;7.738;2023-08-06T00:11:57;14.00;37.40
3846;DHT22;1938;50.812;7.738;2023-08-06T00:14:22;14.00;60.10
3846;DHT22;1938;50.812;7.738;2023-08-06T00:16:48;14.00;63.50
3846;DHT22;1938;50.812;7.738;2023-08-06T00:19:13;13.90;69.40
3846;DHT22;1938;50.812;7.738;2023-08-06T00:21:39;13.80;99.90
3846;DHT22;1938;50.812;7.738;2023-08-06T00:24:05;13.80;99.90
3846;DHT22;1938;50.812;7.738;2023-08-06T00:26:30;13.60;99.90
3846;DHT22;1938;50.812;7.738;2023-08-06T00:28:56;13.50;99.90
3846;DHT22;1938;50.812;7.738;2023-08-06T00:31:22;13.50;99.90
3846;DHT22;1938;50.812;7.738;2023-08-06T00:33:48;13.40;99.90
3846;DHT22;1938;50.812;7.738;2023-08-06T00:36:13;13.40;99.90
3846;DHT22;1938;50.812;7.738;2023-08-06T00:38:39;13.40;99.90
3846;DHT22;1938;50.812;7.738;2023-08-06T00:41:05;13.40;99.90
3846;DHT22;1938;50.812;7.738;2023-08-06T00:43:31;13.50;99.90
3846;DHT22;1938;50.812;7.738;2023-08-06T00:45:56;13.50;99.90
3846;DHT22;1938;50.812;7.738;2023-08-06T00:48:22;13.50;99.90
3846;DHT22;1938;50.812;7.738;2023-08-06T00:50:49;13.60;99.90
3846;DHT22;1938;50.812;7.738;2023-08-06T00:53:14;13.60;99.90
3846;DHT22;1938;50.812;7.738;2023-08-06T00:55:40;13.70;99.90
3846;DHT22;1938;50.812;7.738;2023-08-06T00:58:08;13.80;99.90
3846;DHT22;1938;50.812;7.738;2023-08-06T01:00:34;13.80;99.90
3846;DHT22;1938;50.812;7.738;2023-08-06T01:02:59;13.90;99.90
3846;DHT22;1938;50.812;7.738;2023-08-06T01:05:25;13.90;99.90
3846;DHT22;1938;50.812;7.738;2023-08-06T01:13:38;14.00;99.90
3846;DHT22;1938;50.812;7.738;2023-08-06T01:16:07;14.10;99.90
3846;DHT22;1938;50.812;7.738;2023-08-06T01:18:34;14.00;99.90
3846;DHT22;1938;50.812;7.738;2023-08-06T01:21:00;14.00;99.90
3846;DHT22;1938;50.812;7.738;2023-08-06T01:23:26;13.90;99.90
3846;DHT22;1938;50.812;7.738;2023-08-06T01:28:44;13.80;99.90
3846;DHT22;1938;50.812;7.738;2023-08-06T01:31:35;13.70;99.90
3846;DHT22;1938;50.812;7.738;2023-08-06T01:34:03;13.70;99.90
3846;DHT22;1938;50.812;7.738;2023-08-06T01:36:30;13.70;99.90
3846;DHT22;1938;50.812;7.738;2023-08-06T01:38:57;13.70;99.90
3846;DHT22;1938;50.812;7.738;2023-08-06T01:41:23;13.80;99.90
3846;DHT22;1938;50.812;7.738;2023-08-06T01:43:48;13.90;99.90
3846;DHT22;1938;50.812;7.738;2023-08-06T01:46:14;13.90;99.90
3846;DHT22;1938;50.812;7.738;2023-08-06T01:48:40;14.00;99.90
3846;DHT22;1938;50.812;7.738;2023-08-06T01:51:06;14.10;99.90
3846;DHT22;1938;50.812;7.738;2023-08-06T01:53:32;14.10;99.90
3846;DHT22;1938;50.812;7.738;2023-08-06T01:55:57;14.20;99.90
3846;DHT22;1938;50.812;7.738;2023-08-06T01:58:24;14.30;99.90
3846;DHT22;1938;50.812;7.738;2023-08-06T02:00:50;14.30;99.90
3846;DHT22;1938;50.812;7.738;2023-08-06T02:03:15;14.30;99.90
3846;DHT22;1938;50.812;7.738;2023-08-06T02:05:41;14.30;99.90
3846;DHT22;1938;50.812;7.738;2023-08-06T02:08:07;14.30;99.90
3846;DHT22;1938;50.812;7.738;2023-08-06T02:10:33;14.40;99.90
3846;DHT22;1938;50.812;7.738;2023-08-06T02:12:58;14.40;99.90
3846;DHT22;1938;50.812;7.738;2023-08-06T02:15:25;14.50;99.90
3846;DHT22;1938;50.812;7.738;2023-08-06T02:17:51;14.50;99.90
3846;DHT22;1938;50.812;7.738;2023-08-06T02:20:16;14.50;99.90
3846;DHT22;1938;50.812;7.738;2023-08-06T02:22:42;14.50;94.90
3846;DHT22;1938;50.812;7.738;2023-08-06T02:25:07;14.60;98.00
3846;DHT22;1938;50.812;7.738;2023-08-06T02:27:33;14.60;96.20
3846;DHT22;1938;50.812;7.738;2023-08-06T02:29:59;14.60;79.60
3846;DHT22;1938;50.812;7.738;2023-08-06T02:32:25;14.60;76.80
3846;DHT22;1938;50.812;7.738;2023-08-06T02:34:51;14.60;71.40
3846;DHT22;1938;50.812;7.738;2023-08-06T02:37:16;14.60;73.80
3846;DHT22;1938;50.812;7.738;2023-08-06T02:39:42;14.50;99.90
3846;DHT22;1938;50.812;7.738;2023-08-06T02:42:08;14.60;92.50
3846;DHT22;1938;50.812;7.738;2023-08-06T02:44:34;14.50;52.10
3846;DHT22;1938;50.812;7.738;2023-08-06T02:47:00;14.50;56.70
3846;DHT22;1938;50.812;7.738;2023-08-06T02:49:26;14.50;66.70
3846;DHT22;1938;50.812;7.738;2023-08-06T02:51:51;14.50;91.70
3846;DHT22;1938;50.812;7.738;2023-08-06T02:54:19;14.50;95.00
3846;DHT22;1938;50.812;7.738;2023-08-06T02:56:45;14.60;90.20
3846;DHT22;1938;50.812;7.738;2023-08-06T02:59:12;14.50;92.40
3846;DHT22;1938;50.812;7.738;2023-08-06T03:01:38;14.50;64.20
3846;DHT22;1938;50.812;7.738;2023-08-06T03:04:03;14.50;45.70
3846;DHT22;1938;50.812;7.738;2023-08-06T03:06:29;14.50;63.90
3846;DHT22;1938;50.812;7.738;2023-08-06T03:08:55;14.50;30.00
3846;DHT22;1938;50.812;7.738;2023-08-06T03:11:21;14.50;30.90
3846;DHT22;1938;50.812;7.738;2023-08-06T03:13:47;14.40;27.50
3846;DHT22;1938;50.812;7.738;2023-08-06T03:16:13;14.40;45.70
3846;DHT22;1938;50.812;7.738;2023-08-06T03:18:39;14.50;84.30
3846;DHT22;1938;50.812;7.738;2023-08-06T03:21:04;14.50;55.30
3846;DHT22;1938;50.812;7.738;2023-08-06T03:23:30;14.50;43.10
3846;DHT22;1938;50.812;7.738;2023-08-06T03:25:55;14.50;19.10
3846;DHT22;1938;50.812;7.738;2023-08-06T03:28:21;14.50;17.10
3846;DHT22;1938;50.812;7.738;2023-08-06T03:30:47;14.40;8.80
3846;DHT22;1938;50.812;7.738;2023-08-06T03:33:13;14.50;3.30
3846;DHT22;1938;50.812;7.738;2023-08-06T03:35:39;14.50;4.50
3846;DHT22;1938;50.812;7.738;2023-08-06T03:38:05;14.40;9.80
3846;DHT22;1938;50.812;7.738;2023-08-06T03:40:30;14.40;46.10
3846;DHT22;1938;50.812;7.738;2023-08-06T03:42:57;14.30;57.20
3846;DHT22;1938;50.812;7.738;2023-08-06T03:45:22;14.20;99.90
3846;DHT22;1938;50.812;7.738;2023-08-06T03:47:48;14.20;99.90
3846;DHT22;1938;50.812;7.738;2023-08-06T03:50:13;14.10;99.90
3846;DHT22;1938;50.812;7.738;2023-08-06T03:52:39;14.10;99.90
3846;DHT22;1938;50.812;7.738;2023-08-06T03:55:06;14.10;99.90
3846;DHT22;1938;50.812;7.738;2023-08-06T03:57:31;14.20;99.90
3846;DHT22;1938;50.812;7.738;2023-08-06T03:59:57;14.10;99.90
3846;DHT22;1938;50.812;7.738;2023-08-06T04:02:22;14.20;99.90
3846;DHT22;1938;50.812;7.738;2023-08-06T04:04:49;14.20;99.90
3846;DHT22;1938;50.812;7.738;2023-08-06T04:07:15;14.20;99.90
3846;DHT22;1938;50.812;7.738;2023-08-06T04:10:00;14.20;99.90
3846;DHT22;1938;50.812;7.738;2023-08-06T04:12:27;14.30;99.90
3846;DHT22;1938;50.812;7.738;2023-08-06T04:14:53;14.30;99.70
3846;DHT22;1938;50.812;7.738;2023-08-06T04:17:20;14.30;99.90
3846;DHT22;1938;50.812;7.738;2023-08-06T04:19:51;14.30;95.20
3846;DHT22;1938;50.812;7.738;2023-08-06T04:22:17;14.40;61.00
3846;DHT22;1938;50.812;7.738;2023-08-06T04:24:43;14.40;52.80
3846;DHT22;1938;50.812;7.738;2023-08-06T04:27:10;14.50;49.10
3846;DHT22;1938;50.812;7.738;2023-08-06T04:29:36;14.50;47.90
3846;DHT22;1938;50.812;7.738;2023-08-06T04:32:05;14.60;36.70
3846;DHT22;1938;50.812;7.738;2023-08-06T04:34:31;14.60;5.90
3846;DHT22;1938;50.812;7.738;2023-08-06T04:36:56;14.60;1.00
3846;DHT22;1938;50.812;7.738;2023-08-06T04:39:22;14.60;1.00
3846;DHT22;1938;50.812;7.738;2023-08-06T04:41:47;14.60;1.00
3846;DHT22;1938;50.812;7.738;2023-08-06T04:44:13;14.60;1.00
3846;DHT22;1938;50.812;7.738;2023-08-06T04:46:38;14.60;1.00
3846;DHT22;1938;50.812;7.738;2023-08-06T04:49:04;14.70;1.00
3846;DHT22;1938;50.812;7.738;2023-08-06T04:51:29;14.70;1.00
3846;DHT22;1938;50.812;7.738;2023-08-06T04:53:57;14.70;1.00
3846;DHT22;1938;50.812;7.738;2023-08-06T04:56:22;14.80;1.00
3846;DHT22;1938;50.812;7.738;2023-08-06T04:58:48;14.80;1.00
3846;DHT22;1938;50.812;7.738;2023-08-06T05:01:13;14.80;1.00
3846;DHT22;1938;50.812;7.738;2023-08-06T05:03:39;14.90;1.00
3846;DHT22;1938;50.812;7.738;2023-08-06T05:06:04;14.90;1.00
3846;DHT22;1938;50.812;7.738;2023-08-06T05:08:31;15.00;1.00
3846;DHT22;1938;50.812;7.738;2023-08-06T05:10:56;14.90;1.00
3846;DHT22;1938;50.812;7.738;2023-08-06T05:13:22;14.80;19.70
3846;DHT22;1938;50.812;7.738;2023-08-06T05:15:47;14.80;56.30
3846;DHT22;1938;50.812;7.738;2023-08-06T05:18:13;14.80;96.30
3846;DHT22;1938;50.812;7.738;2023-08-06T05:20:40;14.70;99.90
3846;DHT22;1938;50.812;7.738;2023-08-06T05:23:05;14.70;99.90
3846;DHT22;1938;50.812;7.738;2023-08-06T05:25:31;14.60;99.90
3846;DHT22;1938;50.812;7.738;2023-08-06T05:27:57;14.60;99.90
3846;DHT22;1938;50.812;7.738;2023-08-06T05:30:22;14.60;99.90
3846;DHT22;1938;50.812;7.738;2023-08-06T05:32:48;14.60;99.90
3846;DHT22;1938;50.812;7.738;2023-08-06T05:35:13;14.60;99.90
3846;DHT22;1938;50.812;7.738;2023-08-06T05:37:39;14.50;99.90
3846;DHT22;1938;50.812;7.738;2023-08-06T05:40:04;14.60;99.90
3846;DHT22;1938;50.812;7.738;2023-08-06T05:42:30;14.70;99.90
3846;DHT22;1938;50.812;7.738;2023-08-06T05:44:56;14.70;99.90
3846;DHT22;1938;50.812;7.738;2023-08-06T05:47:21;14.70;99.90
3846;DHT22;1938;50.812;7.738;2023-08-06T05:49:47;14.80;99.90
3846;DHT22;1938;50.812;7.738;2023-08-06T05:52:12;14.80;99.90
3846;DHT22;1938;50.812;7.738;2023-08-06T05:54:38;14.90;99.90
3846;DHT22;1938;50.812;7.738;2023-08-06T05:57:04;14.90;99.90
3846;DHT22;1938;50.812;7.738;2023-08-06T05:59:30;15.00;99.90
3846;DHT22;1938;50.812;7.738;2023-08-06T06:01:55;15.00;99.90
3846;DHT22;1938;50.812;7.738;2023-08-06T06:04:21;15.10;99.90
3846;DHT22;1938;50.812;7.738;2023-08-06T06:06:47;14.90;99.90
3846;DHT22;1938;50.812;7.738;2023-08-06T06:09:13;15.00;99.90
3846;DHT22;1938;50.812;7.738;2023-08-06T06:11:38;15.10;99.90
3846;DHT22;1938;50.812;7.738;2023-08-06T06:14:04;15.10;99.90
3846;DHT22;1938;50.812;7.738;2023-08-06T06:16:30;15.10;99.90
3846;DHT22;1938;50.812;7.738;2023-08-06T06:18:55;15.20;99.90
3846;DHT22;1938;50.812;7.738;2023-08-06T06:21:23;15.20;99.90
3846;DHT22;1938;50.812;7.738;2023-08-06T06:23:49;15.20;99.90
3846;DHT22;1938;50.812;7.738;2023-08-06T06:26:17;15.20;99.90
3846;DHT22;1938;50.812;7.738;2023-08-06T06:28:42;15.30;99.90
3846;DHT22;1938;50.812;7.738;2023-08-06T06:31:09;15.30;99.90
3846;DHT22;1938;50.812;7.738;2023-08-06T06:33:34;15.30;99.90
3846;DHT22;1938;50.812;7.738;2023-08-06T06:36:00;15.30;99.90
3846;DHT22;1938;50.812;7.738;2023-08-06T06:38:28;15.40;99.90
3846;DHT22;1938;50.812;7.738;2023-08-06T06:40:55;15.40;99.90
3846;DHT22;1938;50.812;7.738;2023-08-06T06:43:21;15.50;99.90
3846;DHT22;1938;50.812;7.738;2023-08-06T06:45:46;15.50;99.90
3846;DHT22;1938;50.812;7.738;2023-08-06T06:48:12;15.60;99.90
3846;DHT22;1938;50.812;7.738;2023-08-06T06:50:37;15.70;99.90
3846;DHT22;1938;50.812;7.738;2023-08-06T06:53:04;15.70;99.90
3846;DHT22;1938;50.812;7.738;2023-08-06T06:55:30;15.80;99.90
3846;DHT22;1938;50.812;7.738;2023-08-06T06:57:55;15.90;81.70
3846;DHT22;1938;50.812;7.738;2023-08-06T07:00:21;16.00;54.80
3846;DHT22;1938;50.812;7.738;2023-08-06T07:02:46;16.00;1.00
3846;DHT22;1938;50.812;7.738;2023-08-06T07:05:12;16.00;1.00
3846;DHT22;1938;50.812;7.738;2023-08-06T07:07:37;16.00;1.00
3846;DHT22;1938;50.812;7.738;2023-08-06T07:10:03;16.10;1.00
3846;DHT22;1938;50.812;7.738;2023-08-06T07:12:29;16.10;1.00
3846;DHT22;1938;50.812;7.738;2023-08-06T07:14:54;16.20;1.00
3846;DHT22;1938;50.812;7.738;2023-08-06T07:17:20;16.20;1.00
3846;DHT22;1938;50.812;7.738;2023-08-06T07:19:46;16.20;1.00
3846;DHT22;1938;50.812;7.738;2023-08-06T07:22:11;16.30;1.00
3846;DHT22;1938;50.812;7.738;2023-08-06T07:24:37;16.40;1.00
3846;DHT22;1938;50.812;7.738;2023-08-06T07:27:03;16.40;99.90
3846;DHT22;1938;50.812;7.738;2023-08-06T07:29:29;16.50;99.90
3846;DHT22;1938;50.812;7.738;2023-08-06T07:31:55;16.60;99.90
3846;DHT22;1938;50.812;7.738;2023-08-06T07:34:21;16.60;99.90
3846;DHT22;1938;50.812;7.738;2023-08-06T07:36:47;16.70;1.00
3846;DHT22;1938;50.812;7.738;2023-08-06T07:39:12;16.70;99.90
3846;DHT22;1938;50.812;7.738;2023-08-06T07:41:38;16.80;99.90
3846;DHT22;1938;50.812;7.738;2023-08-06T07:44:04;16.80;99.90
3846;DHT22;1938;50.812;7.738;2023-08-06T07:46:29;16.90;99.90
3846;DHT22;1938;50.812;7.738;2023-08-06T07:48:55;16.70;5.80
3846;DHT22;1938;50.812;7.738;2023-08-06T07:51:21;16.70;99.90
3846;DHT22;1938;50.812;7.738;2023-08-06T07:53:46;16.70;1.00
3846;DHT22;1938;50.812;7.738;2023-08-06T07:56:12;16.60;36.20
3846;DHT22;1938;50.812;7.738;2023-08-06T07:58:38;16.50;1.00
3846;DHT22;1938;50.812;7.738;2023-08-06T08:01:03;16.40;1.00
3846;DHT22;1938;50.812;7.738;2023-08-06T08:03:29;16.40;99.90
3846;DHT22;1938;50.812;7.738;2023-08-06T08:05:55;16.40;95.60
3846;DHT22;1938;50.812;7.738;2023-08-06T08:08:24;16.60;99.90
3846;DHT22;1938;50.812;7.738;2023-08-06T08:10:50;16.70;1.00
3846;DHT22;1938;50.812;7.738;2023-08-06T08:13:15;16.70;1.00
3846;DHT22;1938;50.812;7.738;2023-08-06T08:15:41;16.70;99.90
3846;DHT22;1938;50.812;7.738;2023-08-06T08:18:07;16.70;1.00
3846;DHT22;1938;50.812;7.738;2023-08-06T08:20:32;16.60;1.00
3846;DHT22;1938;50.812;7.738;2023-08-06T08:23:00;16.50;22.20
3846;DHT22;1938;50.812;7.738;2023-08-06T08:25:27;16.30;99.90
3846;DHT22;1938;50.812;7.738;2023-08-06T08:27:54;16.30;99.90
3846;DHT22;1938;50.812;7.738;2023-08-06T08:30:21;16.20;1.00
3846;DHT22;1938;50.812;7.738;2023-08-06T08:32:48;16.10;99.90
3846;DHT22;1938;50.812;7.738;2023-08-06T08:35:14;16.10;1.00
3846;DHT22;1938;50.812;7.738;2023-08-06T08:37:41;16.10;1.00
3846;DHT22;1938;50.812;7.738;2023-08-06T08:40:08;16.10;1.00
3846;DHT22;1938;50.812;7.738;2023-08-06T08:42:33;16.00;1.00
3846;DHT22;1938;50.812;7.738;2023-08-06T08:44:59;16.00;99.90
3846;DHT22;1938;50.812;7.738;2023-08-06T08:47:25;16.10;42.10
3846;DHT22;1938;50.812;7.738;2023-08-06T08:49:54;16.10;99.90
3846;DHT22;1938;50.812;7.738;2023-08-06T08:52:21;16.10;99.90
3846;DHT22;1938;50.812;7.738;2023-08-06T08:54:48;16.10;99.90
3846;DHT22;1938;50.812;7.738;2023-08-06T08:57:18;16.10;99.90
3846;DHT22;1938;50.812;7.738;2023-08-06T08:59:45;16.10;99.90
3846;DHT22;1938;50.812;7.738;2023-08-06T09:02:12;16.10;99.90
3846;DHT22;1938;50.812;7.738;2023-08-06T09:04:39;16.00;99.90
3846;DHT22;1938;50.812;7.738;2023-08-06T09:07:08;16.00;99.90
3846;DHT22;1938;50.812;7.738;2023-08-06T09:09:35;16.00;99.90
3846;DHT22;1938;50.812;7.738;2023-08-06T09:12:12;16.00;99.90
3846;DHT22;1938;50.812;7.738;2023-08-06T09:14:37;16.00;99.90
3846;DHT22;1938;50.812;7.738;2023-08-06T09:17:04;16.00;99.90
3846;DHT22;1938;50.812;7.738;2023-08-06T09:19:30;15.90;1.00
3846;DHT22;1938;50.812;7.738;2023-08-06T09:21:56;15.90;1.00
3846;DHT22;1938;50.812;7.738;2023-08-06T09:24:22;16.00;33.10
3846;DHT22;1938;50.812;7.738;2023-08-06T09:26:47;16.00;38.10
3846;DHT22;1938;50.812;7.738;2023-08-06T09:29:13;16.00;24.20
3846;DHT22;1938;50.812;7.738;2023-08-06T09:31:45;16.00;68.40
3846;DHT22;1938;50.812;7.738;2023-08-06T09:36:42;16.20;99.90
3846;DHT22;1938;50.812;7.738;2023-08-06T09:39:18;16.30;99.90
3846;DHT22;1938;50.812;7.738;2023-08-06T09:41:44;16.50;99.90
3846;DHT22;1938;50.812;7.738;2023-08-06T09:44:21;16.50;43.10
3846;DHT22;1938;50.812;7.738;2023-08-06T09:47:02;16.60;31.80
3846;DHT22;1938;50.812;7.738;2023-08-06T09:49:41;16.80;93.50
3846;DHT22;1938;50.812;7.738;2023-08-06T09:52:11;17.20;99.90
3846;DHT22;1938;50.812;7.738;2023-08-06T09:54:38;17.50;66.40
3846;DHT22;1938;50.812;7.738;2023-08-06T09:57:04;18.00;19.90
3846;DHT22;1938;50.812;7.738;2023-08-06T09:59:30;18.30;99.90
3846;DHT22;1938;50.812;7.738;2023-08-06T10:01:57;18.50;1.00
3846;DHT22;1938;50.812;7.738;2023-08-06T10:04:24;18.40;1.00
3846;DHT22;1938;50.812;7.738;2023-08-06T10:06:50;18.30;99.90
3846;DHT22;1938;50.812;7.738;2023-08-06T10:09:16;18.20;99.90
3846;DHT22;1938;50.812;7.738;2023-08-06T10:11:43;18.30;1.00
3846;DHT22;1938;50.812;7.738;2023-08-06T10:14:28;18.10;99.90
3846;DHT22;1938;50.812;7.738;2023-08-06T10:16:57;18.10;99.90
3846;DHT22;1938;50.812;7.738;2023-08-06T10:19:23;18.00;99.90
3846;DHT22;1938;50.812;7.738;2023-08-06T10:22:11;17.90;99.90
3846;DHT22;1938;50.812;7.738;2023-08-06T10:24:50;17.90;1.00
3846;DHT22;1938;50.812;7.738;2023-08-06T10:27:31;17.70;1.00
3846;DHT22;1938;50.812;7.738;2023-08-06T10:32:50;17.40;99.90
3846;DHT22;1938;50.812;7.738;2023-08-06T10:38:16;17.20;1.00
3846;DHT22;1938;50.812;7.738;2023-08-06T10:40:49;17.20;99.90
3846;DHT22;1938;50.812;7.738;2023-08-06T10:43:30;17.30;1.00
3846;DHT22;1938;50.812;7.738;2023-08-06T10:45:58;17.50;99.90
3846;DHT22;1938;50.812;7.738;2023-08-06T10:48:35;17.70;1.00
3846;DHT22;1938;50.812;7.738;2023-08-06T10:51:07;17.90;99.90
3846;DHT22;1938;50.812;7.738;2023-08-06T10:53:33;18.10;1.00
3846;DHT22;1938;50.812;7.738;2023-08-06T10:56:01;18.00;99.90
3846;DHT22;1938;50.812;7.738;2023-08-06T10:58:36;18.00;99.90
3846;DHT22;1938;50.812;7.738;2023-08-06T11:01:02;18.00;99.90
3846;DHT22;1938;50.812;7.738;2023-08-06T11:03:28;18.10;99.90
3846;DHT22;1938;50.812;7.738;2023-08-06T11:05:53;18.20;99.90
3846;DHT22;1938;50.812;7.738;2023-08-06T11:08:27;18.20;99.90
3846;DHT22;1938;50.812;7.738;2023-08-06T11:10:53;18.30;99.90
3846;DHT22;1938;50.812;7.738;2023-08-06T11:13:20;18.30;1.00
3846;DHT22;1938;50.812;7.738;2023-08-06T11:15:45;18.30;39.20
3846;DHT22;1938;50.812;7.738;2023-08-06T11:18:12;18.40;1.00
3846;DHT22;1938;50.812;7.738;2023-08-06T11:20:39;18.40;99.90
3846;DHT22;1938;50.812;7.738;2023-08-06T11:23:05;18.20;99.90
3846;DHT22;1938;50.812;7.738;2023-08-06T11:25:36;18.00;17.90
3846;DHT22;1938;50.812;7.738;2023-08-06T11:28:01;17.70;11.40
3846;DHT22;1938;50.812;7.738;2023-08-06T11:30:28;17.40;99.90
3846;DHT22;1938;50.812;7.738;2023-08-06T11:32:53;17.20;1.00
3846;DHT22;1938;50.812;7.738;2023-08-06T11:35:19;16.90;1.00
3846;DHT22;1938;50.812;7.738;2023-08-06T11:37:48;16.50;99.90
3846;DHT22;1938;50.812;7.738;2023-08-06T11:40:15;16.20;99.90
3846;DHT22;1938;50.812;7.738;2023-08-06T11:42:40;16.00;1.00
3846;DHT22;1938;50.812;7.738;2023-08-06T11:45:08;15.70;53.20
3846;DHT22;1938;50.812;7.738;2023-08-06T11:47:38;15.50;99.90
3846;DHT22;1938;50.812;7.738;2023-08-06T11:50:04;15.30;1.00
3846;DHT22;1938;50.812;7.738;2023-08-06T11:52:31;15.00;1.00
3846;DHT22;1938;50.812;7.738;2023-08-06T11:55:08;14.90;10.80
3846;DHT22;1938;50.812;7.738;2023-08-06T11:57:38;14.70;99.90
3846;DHT22;1938;50.812;7.738;2023-08-06T12:00:05;14.60;99.90
3846;DHT22;1938;50.812;7.738;2023-08-06T12:02:33;14.50;99.90
3846;DHT22;1938;50.812;7.738;2023-08-06T12:07:40;14.30;99.90
3846;DHT22;1938;50.812;7.738;2023-08-06T12:10:06;14.20;99.90
3846;DHT22;1938;50.812;7.738;2023-08-06T12:12:34;14.20;99.90
3846;DHT22;1938;50.812;7.738;2023-08-06T12:15:00;14.00;99.90
3846;DHT22;1938;50.812;7.738;2023-08-06T12:17:26;14.00;99.90
3846;DHT22;1938;50.812;7.738;2023-08-06T12:19:51;13.90;99.90
3846;DHT22;1938;50.812;7.738;2023-08-06T12:22:18;13.90;99.90
3846;DHT22;1938;50.812;7.738;2023-08-06T12:24:46;13.90;99.90
3846;DHT22;1938;50.812;7.738;2023-08-06T12:27:12;13.90;99.90
3846;DHT22;1938;50.812;7.738;2023-08-06T12:29:45;13.90;99.90
3846;DHT22;1938;50.812;7.738;2023-08-06T12:32:11;13.90;99.90
3846;DHT22;1938;50.812;7.738;2023-08-06T12:34:41;13.90;99.90
3846;DHT22;1938;50.812;7.738;2023-08-06T12:37:08;14.00;99.90
3846;DHT22;1938;50.812;7.738;2023-08-06T12:39:34;14.00;99.90
3846;DHT22;1938;50.812;7.738;2023-08-06T12:42:01;14.00;99.90
3846;DHT22;1938;50.812;7.738;2023-08-06T12:44:27;14.00;99.90
3846;DHT22;1938;50.812;7.738;2023-08-06T12:46:53;14.10;99.90
3846;DHT22;1938;50.812;7.738;2023-08-06T12:49:19;14.20;99.90
3846;DHT22;1938;50.812;7.738;2023-08-06T12:51:47;14.10;99.90
3846;DHT22;1938;50.812;7.738;2023-08-06T12:54:12;14.10;99.90
3846;DHT22;1938;50.812;7.738;2023-08-06T12:56:38;14.00;99.90
3846;DHT22;1938;50.812;7.738;2023-08-06T12:59:03;13.90;99.90
3846;DHT22;1938;50.812;7.738;2023-08-06T13:01:29;13.90;99.90
3846;DHT22;1938;50.812;7.738;2023-08-06T13:03:54;13.90;99.90
3846;DHT22;1938;50.812;7.738;2023-08-06T13:06:20;13.90;99.90
3846;DHT22;1938;50.812;7.738;2023-08-06T13:08:45;13.90;99.90
3846;DHT22;1938;50.812;7.738;2023-08-06T13:11:11;13.80;99.90
3846;DHT22;1938;50.812;7.738;2023-08-06T13:13:36;13.80;99.90
3846;DHT22;1938;50.812;7.738;2023-08-06T13:16:02;13.90;99.90
3846;DHT22;1938;50.812;7.738;2023-08-06T13:18:28;13.90;99.90
3846;DHT22;1938;50.812;7.738;2023-08-06T13:20:54;13.90;99.90
3846;DHT22;1938;50.812;7.738;2023-08-06T13:23:21;13.70;99.90
3846;DHT22;1938;50.812;7.738;2023-08-06T13:25:46;13.90;99.90
3846;DHT22;1938;50.812;7.738;2023-08-06T13:28:12;13.80;99.90
3846;DHT22;1938;50.812;7.738;2023-08-06T13:30:39;13.90;99.90
3846;DHT22;1938;50.812;7.738;2023-08-06T13:33:10;13.90;99.90
3846;DHT22;1938;50.812;7.738;2023-08-06T13:35:36;14.00;99.90
3846;DHT22;1938;50.812;7.738;2023-08-06T13:38:02;14.00;99.90
3846;DHT22;1938;50.812;7.738;2023-08-06T13:40:33;13.90;99.90
3846;DHT22;1938;50.812;7.738;2023-08-06T13:42:58;13.90;99.90
3846;DHT22;1938;50.812;7.738;2023-08-06T13:45:24;14.00;99.90
3846;DHT22;1938;50.812;7.738;2023-08-06T13:47:50;14.00;99.90
3846;DHT22;1938;50.812;7.738;2023-08-06T13:50:15;14.00;99.90
3846;DHT22;1938;50.812;7.738;2023-08-06T13:52:41;14.00;99.90
3846;DHT22;1938;50.812;7.738;2023-08-06T13:55:08;14.10;99.90
3846;DHT22;1938;50.812;7.738;2023-08-06T13:57:37;14.20;99.90
3846;DHT22;1938;50.812;7.738;2023-08-06T14:00:04;14.20;99.90
3846;DHT22;1938;50.812;7.738;2023-08-06T14:02:30;14.20;99.90
3846;DHT22;1938;50.812;7.738;2023-08-06T14:04:56;14.20;99.90
3846;DHT22;1938;50.812;7.738;2023-08-06T14:07:22;14.20;99.90
3846;DHT22;1938;50.812;7.738;2023-08-06T14:09:47;14.30;99.90
3846;DHT22;1938;50.812;7.738;2023-08-06T14:12:14;14.20;99.90
3846;DHT22;1938;50.812;7.738;2023-08-06T14:14:41;14.20;99.90
3846;DHT22;1938;50.812;7.738;2023-08-06T14:17:06;14.20;99.90
3846;DHT22;1938;50.812;7.738;2023-08-06T14:19:33;14.10;99.90
3846;DHT22;1938;50.812;7.738;2023-08-06T14:21:58;14.20;99.90
3846;DHT22;1938;50.812;7.738;2023-08-06T14:24:24;14.20;99.90
3846;DHT22;1938;50.812;7.738;2023-08-06T14:26:49;14.30;99.90
3846;DHT22;1938;50.812;7.738;2023-08-06T14:29:15;14.30;99.90
3846;DHT22;1938;50.812;7.738;2023-08-06T14:31:42;14.20;99.90
3846;DHT22;1938;50.812;7.738;2023-08-06T14:34:07;14.20;99.90
3846;DHT22;1938;50.812;7.738;2023-08-06T14:36:33;14.30;99.90
3846;DHT22;1938;50.812;7.738;2023-08-06T14:38:58;14.30;99.90
3846;DHT22;1938;50.812;7.738;2023-08-06T14:41:24;14.30;99.90
3846;DHT22;1938;50.812;7.738;2023-08-06T14:43:51;14.40;99.90
3846;DHT22;1938;50.812;7.738;2023-08-06T14:46:17;14.40;99.90
3846;DHT22;1938;50.812;7.738;2023-08-06T14:48:42;14.30;99.90
3846;DHT22;1938;50.812;7.738;2023-08-06T14:51:08;14.30;99.90
3846;DHT22;1938;50.812;7.738;2023-08-06T14:53:34;14.40;99.90
3846;DHT22;1938;50.812;7.738;2023-08-06T14:56:01;14.30;99.90
3846;DHT22;1938;50.812;7.738;2023-08-06T14:58:27;14.40;99.90
3846;DHT22;1938;50.812;7.738;2023-08-06T15:00:53;14.40;99.90
3846;DHT22;1938;50.812;7.738;2023-08-06T15:03:18;14.50;99.90
3846;DHT22;1938;50.812;7.738;2023-08-06T15:05:47;14.60;99.90
3846;DHT22;1938;50.812;7.738;2023-08-06T15:08:12;14.60;99.90
3846;DHT22;1938;50.812;7.738;2023-08-06T15:10:39;14.60;99.90
3846;DHT22;1938;50.812;7.738;2023-08-06T15:13:04;14.50;99.90
3846;DHT22;1938;50.812;7.738;2023-08-06T15:15:30;14.40;99.90
3846;DHT22;1938;50.812;7.738;2023-08-06T15:17:56;14.40;99.90
3846;DHT22;1938;50.812;7.738;2023-08-06T15:20:23;14.40;99.90
3846;DHT22;1938;50.812;7.738;2023-08-06T15:22:49;14.30;99.90
3846;DHT22;1938;50.812;7.738;2023-08-06T15:25:14;14.40;99.90
3846;DHT22;1938;50.812;7.738;2023-08-06T15:27:40;14.50;99.90
3846;DHT22;1938;50.812;7.738;2023-08-06T15:30:07;14.50;99.90
3846;DHT22;1938;50.812;7.738;2023-08-06T15:32:33;14.40;99.90
3846;DHT22;1938;50.812;7.738;2023-08-06T15:34:58;14.50;99.90
3846;DHT22;1938;50.812;7.738;2023-08-06T15:37:24;14.40;99.90
3846;DHT22;1938;50.812;7.738;2023-08-06T15:39:51;14.40;99.90
3846;DHT22;1938;50.812;7.738;2023-08-06T15:42:16;14.40;99.90
3846;DHT22;1938;50.812;7.738;2023-08-06T15:44:42;14.40;99.90
3846;DHT22;1938;50.812;7.738;2023-08-06T15:47:08;14.30;99.90
3846;DHT22;1938;50.812;7.738;2023-08-06T15:49:35;14.30;99.90
3846;DHT22;1938;50.812;7.738;2023-08-06T15:52:00;14.30;99.90
3846;DHT22;1938;50.812;7.738;2023-08-06T15:54:26;14.20;99.90
3846;DHT22;1938;50.812;7.738;2023-08-06T15:56:51;14.20;99.90
3846;DHT22;1938;50.812;7.738;2023-08-06T16:01:51;14.20;99.90
3846;DHT22;1938;50.812;7.738;2023-08-06T16:04:17;14.20;99.90
3846;DHT22;1938;50.812;7.738;2023-08-06T16:06:43;14.20;99.90
3846;DHT22;1938;50.812;7.738;2023-08-06T16:09:10;14.20;99.90
3846;DHT22;1938;50.812;7.738;2023-08-06T16:11:37;14.10;99.90
3846;DHT22;1938;50.812;7.738;2023-08-06T16:14:03;14.10;99.90
3846;DHT22;1938;50.812;7.738;2023-08-06T16:16:29;14.10;99.90
3846;DHT22;1938;50.812;7.738;2023-08-06T16:18:55;14.10;99.90
3846;DHT22;1938;50.812;7.738;2023-08-06T16:21:20;14.10;99.90
3846;DHT22;1938;50.812;7.738;2023-08-06T16:23:47;14.10;99.90